Terminal Aerodrome Forecast
Issued by NWS

Home | Current Version | Previous Version | Text Only | Print | Product List | Glossary Off
Versions: 1 2 3 4 5 6 7 8 9 10 11 12 13 14 15 16 17 18 19

000
FTUS42 KMHX 241150
TAFOAJ
TAF
KOAJ 241150Z 2412/2512 01011KT P6SM BKN020 OVC040
     FM241300 02008KT 3SM -SN OVC010
     FM241500 02006KT 2SM -SNPL BR OVC003
     FM242100 01006KT 2SM -FZRA BR OVC003
     FM250300 35005KT 4SM BR OVC005
     FM250900 31004KT P6SM SCT030
      AMD LTD TO CLD VIS AND WIND=

USA.gov is the U.S. government's official web portal to all federal, state and local government web resources and services.